createdAt,value
2023-02-27T00:02:54.567Z,101519.13
2023-02-27T00:06:30.563Z,101518.19
2023-02-27T00:10:18.855Z,101518.46
2023-02-27T00:14:05.232Z,101518.21
2023-02-27T00:17:53.061Z,101516.27
2023-02-27T00:21:40.748Z,101515.58
2023-02-27T00:25:28.360Z,101517.12
2023-02-27T00:29:17.075Z,101517.83
2023-02-27T00:33:05.109Z,101517.67
2023-02-27T00:36:52.744Z,101518.13
2023-02-27T00:40:40.360Z,101521.72
2023-02-27T00:44:16.713Z,101521.84
2023-02-27T00:48:04.264Z,101521.16
2023-02-27T00:51:51.795Z,101522.01
2023-02-27T00:55:39.336Z,101525.52
2023-02-27T00:59:27.030Z,101526.33
2023-02-27T01:03:14.575Z,101525.79
2023-02-27T01:07:01.664Z,101524.38
2023-02-27T01:10:49.426Z,101526.52
2023-02-27T01:14:37.348Z,101524.20
2023-02-27T01:18:27.016Z,101527.34
2023-02-27T01:22:08.332Z,101529.75
2023-02-27T01:25:57.275Z,101536.10
2023-02-27T01:29:45.766Z,101538.45
2023-02-27T01:33:33.429Z,101532.77
2023-02-27T01:37:21.286Z,101537.08
2023-02-27T01:41:08.937Z,101539.33
2023-02-27T01:45:23.640Z,101535.45
2023-02-27T01:49:36.396Z,101542.44
2023-02-27T01:53:16.963Z,101544.78
2023-02-27T01:57:07.216Z,101542.04
2023-02-27T02:00:54.811Z,101543.94
2023-02-27T02:04:42.889Z,101543.52
2023-02-27T02:08:34.208Z,101540.85
2023-02-27T02:12:25.710Z,101544.14
2023-02-27T02:16:25.153Z,101548.63
2023-02-27T02:20:28.250Z,101549.29
2023-02-27T02:26:03.524Z,101549.49
2023-02-27T02:30:21.014Z,101549.73
2023-02-27T02:34:40.034Z,101554.64
2023-02-27T02:38:41.026Z,101559.86
2023-02-27T02:42:34.705Z,101558.44
2023-02-27T02:46:17.797Z,101562.82
2023-02-27T02:50:12.533Z,101569.55
2023-02-27T02:54:47.611Z,101570.34
2023-02-27T02:58:47.488Z,101577.46
2023-02-27T03:02:38.835Z,101582.75
2023-02-27T03:06:32.273Z,101584.01
2023-02-27T03:10:27.815Z,101586.27
2023-02-27T03:14:12.405Z,101584.72
2023-02-27T03:18:06.626Z,101587.22
2023-02-27T03:21:59.266Z,101591.89
2023-02-27T03:25:47.853Z,101595.02
2023-02-27T03:29:42.306Z,101596.50
2023-02-27T03:33:33.367Z,101600.41
2023-02-27T03:37:28.512Z,101605.01
2023-02-27T03:41:25.490Z,101606.70
2023-02-27T03:45:22.609Z,101611.52
2023-02-27T03:49:10.577Z,101617.77
2023-02-27T03:52:58.595Z,101615.92
2023-02-27T03:56:51.865Z,101625.36
2023-02-27T04:00:39.523Z,101633.91
2023-02-27T04:04:28.568Z,101635.77
2023-02-27T04:08:42.091Z,101639.30
2023-02-27T04:12:54.292Z,101646.45
2023-02-27T04:17:01.110Z,101654.55
2023-02-27T04:20:55.547Z,101657.73
2023-02-27T04:24:53.592Z,101649.86
2023-02-27T04:28:46.103Z,101654.88
2023-02-27T04:32:32.175Z,101653.11
2023-02-27T04:36:20.274Z,101646.89
2023-02-27T04:40:12.273Z,101650.02
2023-02-27T04:44:01.758Z,101651.88
2023-02-27T04:47:53.466Z,101659.31
2023-02-27T04:51:37.866Z,101659.92
2023-02-27T04:55:30.542Z,101659.77
2023-02-27T04:59:11.258Z,101664.29
2023-02-27T05:02:44.738Z,101665.38
2023-02-27T05:06:36.878Z,101663.75
2023-02-27T05:10:31.517Z,101660.55
2023-02-27T05:14:17.642Z,101662.83
2023-02-27T05:18:01.135Z,101668.33
2023-02-27T05:21:56.220Z,101678.05
2023-02-27T05:25:51.826Z,101681.59
2023-02-27T05:29:48.204Z,101676.48
2023-02-27T05:33:33.885Z,101683.56
2023-02-27T05:37:26.858Z,101683.05
2023-02-27T05:41:19.098Z,101689.52
2023-02-27T05:45:12.324Z,101689.45
2023-02-27T05:48:59.233Z,101689.63
2023-02-27T05:52:31.801Z,101702.05
2023-02-27T05:56:20.147Z,101701.42
2023-02-27T06:00:03.200Z,101705.35
2023-02-27T06:03:44.636Z,101712.02
2023-02-27T06:07:17.425Z,101721.27
2023-02-27T06:10:50.152Z,101723.41
2023-02-27T06:14:25.547Z,101723.01
2023-02-27T06:18:15.244Z,101721.41
2023-02-27T06:21:46.831Z,101726.90
2023-02-27T06:25:19.665Z,101726.33
2023-02-27T06:28:57.407Z,101722.05
2023-02-27T06:32:45.628Z,101726.89
2023-02-27T06:36:30.559Z,101727.25
2023-02-27T06:40:23.896Z,101737.70
2023-02-27T06:44:14.628Z,101737.77
2023-02-27T06:47:45.695Z,101745.11
2023-02-27T06:51:24.494Z,101743.22
2023-02-27T06:55:13.858Z,101745.79
2023-02-27T06:58:51.159Z,101752.23
2023-02-27T07:02:35.113Z,101758.67
2023-02-27T07:06:19.567Z,101758.27
2023-02-27T07:09:50.232Z,101761.32
2023-02-27T07:13:21.350Z,101763.29
2023-02-27T07:17:18.138Z,101769.49
2023-02-27T07:20:56.376Z,101769.65
2023-02-27T07:24:38.715Z,101773.60
2023-02-27T07:28:26.433Z,101774.19
2023-02-27T07:32:08.478Z,101777.55
2023-02-27T07:35:46.582Z,101781.10
2023-02-27T07:39:26.798Z,101787.00
2023-02-27T07:43:05.233Z,101788.84
2023-02-27T07:46:35.881Z,101789.62
2023-02-27T07:50:23.646Z,101793.84
2023-02-27T07:54:02.728Z,101792.55
2023-02-27T07:57:40.649Z,101791.45
2023-02-27T08:01:16.779Z,101792.00
2023-02-27T08:04:48.101Z,101792.55
2023-02-27T08:08:25.926Z,101793.96
2023-02-27T08:12:04.747Z,101797.32
2023-02-27T08:15:37.526Z,101798.17
2023-02-27T08:19:08.683Z,101800.39
2023-02-27T08:22:38.736Z,101804.90
2023-02-27T08:26:16.839Z,101810.19
2023-02-27T08:30:06.270Z,101817.60
2023-02-27T08:33:36.644Z,101816.08
2023-02-27T08:37:21.452Z,101822.23
2023-02-27T08:40:53.691Z,101827.50
2023-02-27T08:44:36.122Z,101831.91
2023-02-27T08:48:24.956Z,101830.07
2023-02-27T08:51:53.397Z,101830.69
2023-02-27T08:55:34.800Z,101837.76
2023-02-27T08:59:11.815Z,101838.54
2023-02-27T09:02:52.286Z,101838.55
2023-02-27T09:06:38.419Z,101835.20
2023-02-27T09:10:17.951Z,101837.11
2023-02-27T09:13:45.781Z,101843.39
2023-02-27T09:17:22.262Z,101843.70
2023-02-27T09:21:10.142Z,101845.33
2023-02-27T09:24:52.756Z,101845.83
2023-02-27T09:28:31.333Z,101853.33
2023-02-27T09:32:10.721Z,101854.23
2023-02-27T09:35:43.536Z,101860.05
2023-02-27T09:39:26.372Z,101858.34
2023-02-27T09:43:35.278Z,101857.35
2023-02-27T09:47:14.789Z,101856.23
2023-02-27T09:50:50.378Z,101859.54
2023-02-27T09:54:26.507Z,101862.06
2023-02-27T09:58:09.400Z,101865.63
2023-02-27T10:02:06.886Z,101864.08
2023-02-27T10:05:55.172Z,101867.38
2023-02-27T10:09:44.399Z,101872.48
2023-02-27T10:13:31.873Z,101870.83
2023-02-27T10:17:12.177Z,101871.34
2023-02-27T10:20:56.920Z,101875.90
2023-02-27T10:24:48.783Z,101884.48
2023-02-27T10:28:24.953Z,101885.90
2023-02-27T10:32:12.011Z,101885.44
2023-02-27T10:35:52.148Z,101883.06
2023-02-27T10:39:51.521Z,101886.70
2023-02-27T10:43:23.066Z,101884.02
2023-02-27T10:47:16.559Z,101884.19
2023-02-27T10:50:53.777Z,101882.45
2023-02-27T10:54:31.906Z,101878.45
2023-02-27T10:58:19.923Z,101875.91
2023-02-27T11:01:53.796Z,101868.48
2023-02-27T11:05:40.928Z,101875.14
2023-02-27T11:09:23.940Z,101879.84
2023-02-27T11:13:10.894Z,101880.34
2023-02-27T11:16:55.113Z,101884.64
2023-02-27T11:20:43.621Z,101881.60
2023-02-27T11:24:23.120Z,101878.30
2023-02-27T11:28:25.570Z,101878.09
2023-02-27T11:31:59.374Z,101875.05
2023-02-27T11:35:35.635Z,101874.70
2023-02-27T11:39:06.068Z,101879.71
2023-02-27T11:42:38.276Z,101879.36
2023-02-27T11:46:46.627Z,101880.35
2023-02-27T11:50:29.860Z,101875.77
2023-02-27T11:54:22.016Z,101878.24
2023-02-27T11:58:16.302Z,101872.45
2023-02-27T12:02:12.549Z,101878.73
2023-02-27T12:05:54.429Z,101877.68
2023-02-27T12:09:45.636Z,101876.46
2023-02-27T12:13:37.065Z,101877.34
2023-02-27T12:17:30.246Z,101876.39
2023-02-27T12:21:17.543Z,101875.46
2023-02-27T12:24:56.723Z,101873.06
2023-02-27T12:28:53.007Z,101872.86
2023-02-27T12:32:45.757Z,101872.83
2023-02-27T12:36:28.224Z,101877.80
2023-02-27T12:40:20.678Z,101878.45
2023-02-27T12:44:04.288Z,101878.99
2023-02-27T12:47:52.618Z,101880.35
2023-02-27T12:51:51.690Z,101876.27
2023-02-27T12:55:32.803Z,101872.27
2023-02-27T12:59:09.427Z,101876.33
2023-02-27T13:03:00.457Z,101873.63
2023-02-27T13:06:51.453Z,101875.57
2023-02-27T13:10:33.451Z,101881.08
2023-02-27T13:14:24.660Z,101879.23
2023-02-27T13:18:03.372Z,101875.58
2023-02-27T13:21:56.596Z,101882.25
2023-02-27T13:25:39.831Z,101882.33
2023-02-27T13:29:39.555Z,101878.45
2023-02-27T13:33:23.820Z,101874.48
2023-02-27T13:37:05.625Z,101880.65
2023-02-27T13:40:53.431Z,101882.40
2023-02-27T13:44:50.982Z,101884.00
2023-02-27T13:48:42.529Z,101886.31
2023-02-27T13:52:32.520Z,101890.17
2023-02-27T13:56:23.207Z,101892.96
2023-02-27T14:00:05.291Z,101895.18
2023-02-27T14:03:43.665Z,101897.60
2023-02-27T14:07:27.169Z,101899.08
2023-02-27T14:11:02.845Z,101892.70
2023-02-27T14:14:53.377Z,101898.66
2023-02-27T14:18:58.214Z,101897.16
2023-02-27T14:23:20.703Z,101899.45
2023-02-27T14:26:55.565Z,101900.13
2023-02-27T14:30:42.073Z,101909.51
2023-02-27T14:34:21.536Z,101907.19
2023-02-27T14:37:49.256Z,101905.52
2023-02-27T14:41:38.172Z,101907.66
2023-02-27T14:45:20.401Z,101904.94
2023-02-27T14:49:19.399Z,101910.30
2023-02-27T14:52:52.764Z,101913.80
2023-02-27T14:56:29.281Z,101917.75
2023-02-27T15:00:22.828Z,101925.83
2023-02-27T15:04:02.476Z,101924.61
2023-02-27T15:07:35.270Z,101924.23
2023-02-27T15:11:20.576Z,101928.23
2023-02-27T15:14:58.130Z,101935.45
2023-02-27T15:18:28.934Z,101941.45
2023-02-27T15:22:05.682Z,101942.80
2023-02-27T15:25:36.771Z,101943.84
2023-02-27T15:29:10.087Z,101949.06
2023-02-27T15:32:44.544Z,101952.33
2023-02-27T15:36:26.929Z,101956.25
2023-02-27T15:40:09.196Z,101958.52
2023-02-27T15:43:39.896Z,101958.89
2023-02-27T15:47:15.040Z,101968.30
2023-02-27T15:50:48.807Z,101971.23
2023-02-27T15:54:22.323Z,101975.76
2023-02-27T15:58:03.784Z,101980.62
2023-02-27T16:01:53.219Z,101980.30
2023-02-27T16:05:36.233Z,101984.05
2023-02-27T16:09:26.083Z,101989.52
2023-02-27T16:12:57.697Z,101995.43
2023-02-27T16:16:56.816Z,101998.55
2023-02-27T16:20:47.806Z,101998.71
2023-02-27T16:24:34.557Z,102002.55
2023-02-27T16:28:05.675Z,102003.45
2023-02-27T16:31:57.049Z,102002.13
2023-02-27T16:35:36.143Z,102007.17
2023-02-27T16:39:15.487Z,102011.58
2023-02-27T16:42:48.908Z,102016.61
2023-02-27T16:46:36.628Z,102017.04
2023-02-27T16:50:21.646Z,102021.89
2023-02-27T16:53:58.543Z,102028.84
2023-02-27T16:57:35.123Z,102033.06
2023-02-27T17:01:25.509Z,102033.70
2023-02-27T17:05:10.330Z,102037.94
2023-02-27T17:08:52.904Z,102045.30
2023-02-27T17:12:29.168Z,102047.84
2023-02-27T17:16:18.676Z,102052.63
2023-02-27T17:19:49.422Z,102054.80
2023-02-27T17:23:21.569Z,102055.25
2023-02-27T17:26:52.601Z,102056.18
2023-02-27T17:30:21.207Z,102056.52
2023-02-27T17:33:48.723Z,102056.33
2023-02-27T17:37:22.265Z,102061.35
2023-02-27T17:40:59.466Z,102065.16
2023-02-27T17:44:40.343Z,102071.88
2023-02-27T17:48:10.962Z,102075.77
2023-02-27T17:51:43.626Z,102075.50
2023-02-27T17:55:32.084Z,102076.47
2023-02-27T17:58:57.993Z,102079.49
2023-02-27T18:02:31.240Z,102075.10
2023-02-27T18:05:59.031Z,102074.36
2023-02-27T18:09:33.813Z,102079.01
2023-02-27T18:13:12.709Z,102080.45
2023-02-27T18:16:51.761Z,102080.73
2023-02-27T18:20:40.492Z,102077.84
2023-02-27T18:24:18.363Z,102086.20
2023-02-27T18:27:48.645Z,102088.23
2023-02-27T18:31:27.720Z,102088.35
2023-02-27T18:35:03.740Z,102090.64
2023-02-27T18:38:42.309Z,102089.80
2023-02-27T18:42:20.422Z,102092.73
2023-02-27T18:45:55.800Z,102093.06
2023-02-27T18:49:36.250Z,102095.23
2023-02-27T18:53:13.863Z,102102.77
2023-02-27T18:56:53.214Z,102097.66
2023-02-27T19:00:37.724Z,102099.83
2023-02-27T19:04:10.918Z,102097.79
2023-02-27T19:07:46.228Z,102098.05
2023-02-27T19:11:28.656Z,102094.16
2023-02-27T19:15:01.177Z,102090.49
2023-02-27T19:18:37.738Z,102094.63
2023-02-27T19:22:14.377Z,102098.09
2023-02-27T19:25:47.756Z,102103.60
2023-02-27T19:29:35.447Z,102102.66
2023-02-27T19:33:02.705Z,102101.73
2023-02-27T19:36:34.680Z,102100.40
2023-02-27T19:40:22.939Z,102101.47
2023-02-27T19:43:56.264Z,102104.02
2023-02-27T19:47:26.695Z,102107.84
2023-02-27T19:50:56.907Z,102109.45
2023-02-27T19:54:30.757Z,102113.58
2023-02-27T19:58:21.449Z,102116.28
2023-02-27T20:01:54.962Z,102113.33
2023-02-27T20:05:37.966Z,102115.85
2023-02-27T20:09:18.649Z,102114.16
2023-02-27T20:12:49.455Z,102112.57
2023-02-27T20:16:37.598Z,102113.05
2023-02-27T20:20:14.404Z,102115.43
2023-02-27T20:24:02.565Z,102115.22
2023-02-27T20:27:36.233Z,102121.02
2023-02-27T20:31:27.635Z,102120.49
2023-02-27T20:35:21.094Z,102123.27
2023-02-27T20:39:03.831Z,102122.96
2023-02-27T20:42:41.261Z,102131.47
2023-02-27T20:46:31.575Z,102133.34
2023-02-27T20:49:59.039Z,102136.70
2023-02-27T20:53:26.975Z,102135.52
2023-02-27T20:56:54.674Z,102140.81
2023-02-27T21:00:31.478Z,102142.05
2023-02-27T21:04:02.711Z,102142.84
2023-02-27T21:07:39.217Z,102142.23
2023-02-27T21:11:18.804Z,102145.73
2023-02-27T21:14:56.666Z,102147.67
2023-02-27T21:18:45.174Z,102143.80
2023-02-27T21:22:17.301Z,102145.73
2023-02-27T21:25:58.713Z,102145.84
2023-02-27T21:29:31.043Z,102152.61
2023-02-27T21:33:07.398Z,102147.65
2023-02-27T21:36:55.480Z,102153.29
2023-02-27T21:40:27.159Z,102158.17
2023-02-27T21:44:17.202Z,102160.80
2023-02-27T21:47:54.844Z,102164.81
2023-02-27T21:51:38.345Z,102168.20
2023-02-27T21:55:18.143Z,102174.55
2023-02-27T21:58:56.173Z,102173.13
2023-02-27T22:02:23.859Z,102178.21
2023-02-27T22:06:00.588Z,102174.94
2023-02-27T22:09:53.145Z,102173.05
2023-02-27T22:13:32.306Z,102176.41
2023-02-27T22:17:34.508Z,102176.66
2023-02-27T22:21:25.428Z,102179.86
2023-02-27T22:25:15.080Z,102178.79
2023-02-27T22:28:56.419Z,102178.48
2023-02-27T22:32:33.759Z,102179.88
2023-02-27T22:36:11.228Z,102182.59
2023-02-27T22:39:41.594Z,102184.63
2023-02-27T22:43:14.041Z,102184.15
2023-02-27T22:46:47.157Z,102188.27
2023-02-27T22:50:27.725Z,102187.77
2023-02-27T22:54:01.558Z,102189.70
2023-02-27T22:57:34.443Z,102191.05
2023-02-27T23:01:18.499Z,102194.23
2023-02-27T23:04:49.361Z,102193.52
2023-02-27T23:08:47.019Z,102197.78
2023-02-27T23:12:45.249Z,102199.63
2023-02-27T23:16:22.075Z,102202.63
2023-02-27T23:20:00.552Z,102202.20
2023-02-27T23:23:41.918Z,102205.15
2023-02-27T23:27:29.280Z,102206.63
2023-02-27T23:31:10.494Z,102210.91
2023-02-27T23:34:49.601Z,102214.77
2023-02-27T23:38:37.704Z,102218.61
2023-02-27T23:42:25.102Z,102220.08
2023-02-27T23:46:15.522Z,102221.17
2023-02-27T23:49:52.287Z,102220.81
2023-02-27T23:53:25.142Z,102220.61
2023-02-27T23:57:12.641Z,102218.83
